Time;durP1;ratioP1;P1;durP2;ratioP2;P2;SDS_P1;SDS_P2;PMS_P1;PMS_P2;Temp;Humidity;BMP_temperature;BMP_pressure;BME280_temperature;BME280_humidity;BME280_pressure;Samples;Min_cycle;Max_cycle;Signal;HPM_P1;HPM_P2
2021/07/13 00:00:32;;;;;;;11.20;8.63;;;;;;;21.19;100.00;98951.48;1765393;80;21444;-68
2021/07/13 00:03:02;;;;;;;14.85;9.63;;;;;;;21.17;100.00;98950.70;1794037;80;21468;-69
2021/07/13 00:05:31;;;;;;;10.05;8.83;;;;;;;21.15;100.00;98954.41;1784154;80;20836;-68
2021/07/13 00:07:59;;;;;;;12.85;9.28;;;;;;;21.12;100.00;98950.55;1762403;81;20887;-68
2021/07/13 00:10:29;;;;;;;11.40;8.65;;;;;;;21.10;100.00;98955.13;1762583;80;20851;-67
2021/07/13 00:13:00;;;;;;;10.08;8.63;;;;;;;21.07;100.00;98950.78;1762614;80;21468;-68
2021/07/13 00:15:34;;;;;;;14.53;8.50;;;;;;;21.05;100.00;98950.00;1772121;80;21118;-68
2021/07/13 00:18:04;;;;;;;10.45;8.38;;;;;;;21.01;100.00;98953.78;1793333;79;21544;-69
2021/07/13 00:20:32;;;;;;;11.80;8.75;;;;;;;21.00;100.00;98959.63;1793838;80;20879;-69
2021/07/13 00:23:02;;;;;;;10.88;9.05;;;;;;;20.97;100.00;98954.42;1789457;78;20895;-69
2021/07/13 00:25:35;;;;;;;10.78;8.65;;;;;;;20.95;100.00;98954.10;1774957;80;21512;-69
2021/07/13 00:28:02;;;;;;;8.73;7.85;;;;;;;20.93;100.00;98954.19;1789774;80;21128;-69
2021/07/13 00:30:30;;;;;;;9.20;8.30;;;;;;;20.94;100.00;98956.39;1790743;80;20907;-69
2021/07/13 00:32:58;;;;;;;12.73;8.65;;;;;;;20.96;100.00;98959.39;1789258;80;20864;-68
2021/07/13 00:35:27;;;;;;;12.03;8.90;;;;;;;20.97;100.00;98961.59;1759304;80;20991;-69
2021/07/13 00:37:56;;;;;;;11.03;8.70;;;;;;;20.97;100.00;98958.91;1770566;80;20916;-69
2021/07/13 00:40:24;;;;;;;11.05;8.95;;;;;;;20.95;100.00;98960.80;1764915;80;21105;-68
2021/07/13 00:42:53;;;;;;;9.85;8.53;;;;;;;20.95;100.00;98962.15;1790295;80;20962;-68
2021/07/13 00:45:23;;;;;;;10.60;8.53;;;;;;;20.93;100.00;98960.02;1787581;80;21381;-69
2021/07/13 00:47:53;;;;;;;9.48;8.58;;;;;;;20.92;100.00;98959.15;1774009;80;21458;-69
2021/07/13 00:50:24;;;;;;;9.03;7.62;;;;;;;20.91;100.00;98956.55;1753693;80;20846;-68
2021/07/13 00:52:57;;;;;;;8.80;8.00;;;;;;;20.88;100.00;98948.66;1760463;80;21385;-68
2021/07/13 00:55:24;;;;;;;12.53;9.10;;;;;;;20.86;100.00;98946.53;1759182;80;20974;-68
2021/07/13 00:57:52;;;;;;;11.18;8.15;;;;;;;20.83;100.00;98938.65;1727480;83;20870;-68
2021/07/13 01:00:21;;;;;;;12.88;9.05;;;;;;;20.81;100.00;98940.06;1756856;81;20926;-69
2021/07/13 01:02:57;;;;;;;9.53;8.53;;;;;;;20.81;100.00;98941.84;1790510;80;21056;-69
2021/07/13 01:05:28;;;;;;;11.65;8.83;;;;;;;20.81;100.00;98937.83;1770752;80;21147;-69
2021/07/13 01:08:34;;;;;;;8.85;7.95;;;;;;;20.82;100.00;98933.76;1788416;79;20902;-70
2021/07/13 01:11:36;;;;;;;9.93;8.23;;;;;;;20.83;100.00;98934.63;1759492;80;20879;-69
2021/07/13 01:14:27;;;;;;;10.50;8.78;;;;;;;20.81;100.00;98925.76;1734847;81;20926;-68
2021/07/13 01:17:21;;;;;;;10.53;8.95;;;;;;;20.79;100.00;98923.63;1745254;81;20979;-69
2021/07/13 01:20:31;;;;;;;10.80;8.63;;;;;;;20.75;100.00;98921.11;1742591;78;21468;-69
2021/07/13 01:23:17;;;;;;;12.23;8.45;;;;;;;20.75;100.00;98916.22;1740868;80;21442;-69
2021/07/13 01:26:29;;;;;;;12.58;8.85;;;;;;;20.75;100.00;98912.20;1769998;80;21465;-69
2021/07/13 01:29:02;;;;;;;22.58;9.58;;;;;;;20.75;100.00;98917.09;1775934;80;21413;-69
2021/07/13 01:31:31;;;;;;;24.12;10.40;;;;;;;20.73;100.00;98916.77;1788676;79;21449;-69
2021/07/13 01:34:08;;;;;;;18.27;9.48;;;;;;;20.71;100.00;98918.66;1793539;78;21242;-70
2021/07/13 01:36:47;;;;;;;21.77;9.10;;;;;;;20.69;100.00;98924.58;1759138;80;20879;-69
2021/07/13 01:39:17;;;;;;;16.97;9.00;;;;;;;20.66;100.00;98926.94;1788682;78;21476;-68
2021/07/13 01:41:48;;;;;;;15.65;8.60;;;;;;;20.61;100.00;98927.64;1804176;78;20986;-69
2021/07/13 01:44:17;;;;;;;15.13;9.00;;;;;;;20.57;100.00;98927.41;1816884;78;21034;-69
2021/07/13 01:46:45;;;;;;;10.18;8.65;;;;;;;20.56;100.00;98927.48;1783220;78;21120;-70
2021/07/13 01:49:13;;;;;;;14.98;9.53;;;;;;;20.53;100.00;98925.83;1787720;78;20871;-69
2021/07/13 01:51:45;;;;;;;11.73;8.08;;;;;;;20.52;100.00;98931.26;1809010;78;20931;-69
2021/07/13 01:54:14;;;;;;;11.80;8.60;;;;;;;20.46;100.00;98924.39;1761386;78;21552;-69
2021/07/13 01:56:45;;;;;;;18.17;8.83;;;;;;;20.42;100.00;98917.45;1777756;78;20918;-68
2021/07/13 01:59:15;;;;;;;13.68;8.53;;;;;;;20.37;100.00;98918.13;1808919;78;21137;-68
2021/07/13 02:01:44;;;;;;;14.15;8.78;;;;;;;20.32;100.00;98915.64;1818439;78;21556;-68
2021/07/13 02:04:13;;;;;;;25.45;9.43;;;;;;;20.31;100.00;98914.38;1822305;78;21081;-68
2021/07/13 02:06:45;;;;;;;12.53;8.38;;;;;;;20.30;100.00;98911.30;1823152;78;20943;-68
2021/07/13 02:09:15;;;;;;;20.52;9.53;;;;;;;20.29;100.00;98910.43;1815730;78;21517;-68
2021/07/13 02:11:44;;;;;;;13.45;8.28;;;;;;;20.28;100.00;98912.72;1782685;78;21168;-68
2021/07/13 02:14:14;;;;;;;12.50;8.28;;;;;;;20.27;100.00;98912.79;1766669;78;21488;-68
2021/07/13 02:16:43;;;;;;;12.47;8.03;;;;;;;20.23;100.00;98910.73;1737878;80;20831;-68
2021/07/13 02:19:13;;;;;;;61.35;12.10;;;;;;;20.21;100.00;98913.96;1768479;79;21529;-69
2021/07/13 02:21:41;;;;;;;53.58;11.43;;;;;;;20.18;100.00;98917.27;1790833;79;21430;-68
2021/07/13 02:24:12;;;;;;;30.75;10.65;;;;;;;20.17;100.00;98918.20;1762710;78;21387;-68
2021/07/13 02:26:44;;;;;;;46.50;11.28;;;;;;;20.18;100.00;98919.47;1762254;78;21386;-68
2021/07/13 02:29:24;;;;;;;33.60;10.68;;;;;;;20.18;100.00;98918.13;1786039;78;21516;-68
2021/07/13 02:31:56;;;;;;;46.80;10.72;;;;;;;20.16;100.00;98909.77;1799383;78;21455;-68
2021/07/13 02:34:29;;;;;;;28.92;10.10;;;;;;;20.15;100.00;98918.75;1793697;80;21024;-68
2021/07/13 02:37:01;;;;;;;24.32;9.58;;;;;;;20.11;100.00;98921.58;1805798;78;21777;-68
2021/07/13 02:39:30;;;;;;;35.60;12.33;;;;;;;20.10;100.00;98925.20;1766415;78;26720;-70
2021/07/13 02:41:59;;;;;;;22.13;10.90;;;;;;;20.06;100.00;98921.41;1739502;81;21513;-68
2021/07/13 02:44:29;;;;;;;19.23;9.50;;;;;;;20.02;100.00;98920.69;1763029;80;21059;-74
2021/07/13 02:46:57;;;;;;;13.53;9.30;;;;;;;20.00;100.00;98922.56;1816435;78;21072;-69
2021/07/13 02:49:28;;;;;;;12.15;8.68;;;;;;;19.99;100.00;98919.96;1812502;78;21461;-69
2021/07/13 02:51:55;;;;;;;11.15;9.25;;;;;;;19.98;100.00;98922.24;1783085;78;20966;-68
2021/07/13 02:54:27;;;;;;;13.13;8.95;;;;;;;19.98;100.00;98923.58;1739936;80;20902;-68
2021/07/13 02:57:01;;;;;;;17.57;8.75;;;;;;;19.99;100.00;98922.64;1743223;82;20939;-69
2021/07/13 02:59:29;;;;;;;39.67;10.25;;;;;;;20.01;100.00;98922.96;1780105;80;21001;-69
2021/07/13 03:01:57;;;;;;;23.67;9.73;;;;;;;20.05;100.00;98921.88;1769518;80;21471;-69
2021/07/13 03:04:25;;;;;;;14.50;8.85;;;;;;;20.09;100.00;98922.12;1793270;79;21488;-69
2021/07/13 03:06:53;;;;;;;15.60;8.95;;;;;;;20.10;100.00;98917.64;1791335;80;21517;-69
2021/07/13 03:09:22;;;;;;;10.80;9.00;;;;;;;20.12;100.00;98929.14;1774084;80;21442;-68
2021/07/13 03:11:50;;;;;;;12.53;8.88;;;;;;;20.12;100.00;98930.48;1793584;80;20920;-68
2021/07/13 03:14:19;;;;;;;13.53;9.20;;;;;;;20.12;100.00;98932.69;1764649;80;21538;-68
2021/07/13 03:16:47;;;;;;;16.62;9.63;;;;;;;20.16;100.00;98941.44;1763100;78;21470;-69
2021/07/13 03:19:16;;;;;;;13.85;9.93;;;;;;;20.20;100.00;98932.78;1782787;78;20958;-69
2021/07/13 03:21:52;;;;;;;11.33;10.08;;;;;;;20.23;100.00;98943.34;1825439;78;21466;-70
2021/07/13 03:24:19;;;;;;;13.68;9.73;;;;;;;20.25;100.00;98937.44;1764636;78;21449;-69
2021/07/13 03:26:47;;;;;;;14.87;9.20;;;;;;;20.29;100.00;98949.27;1722999;82;21147;-68
2021/07/13 03:29:16;;;;;;;22.73;9.78;;;;;;;20.35;100.00;98951.69;1762008;80;21482;-69
2021/07/13 03:31:43;;;;;;;35.48;10.78;;;;;;;20.39;100.00;98949.28;1739503;80;21090;-69
2021/07/13 03:34:12;;;;;;;15.15;10.30;;;;;;;20.46;100.00;98948.51;1730598;83;20895;-70
2021/07/13 03:36:40;;;;;;;12.35;9.30;;;;;;;20.51;100.00;98949.14;1737519;81;20940;-69
2021/07/13 03:39:08;;;;;;;14.03;9.20;;;;;;;20.57;100.00;98947.97;1772282;79;22007;-69
2021/07/13 03:41:38;;;;;;;13.90;8.90;;;;;;;20.65;100.00;98956.50;1749184;80;21071;-69
2021/07/13 03:44:08;;;;;;;13.22;9.70;;;;;;;20.72;100.00;98952.09;1747874;80;21501;-69
2021/07/13 03:46:38;;;;;;;11.55;10.10;;;;;;;20.79;100.00;98960.69;1751719;80;21480;-69
2021/07/13 03:49:08;;;;;;;16.07;10.58;;;;;;;20.86;100.00;98963.95;1709647;81;20975;-69
2021/07/13 03:51:46;;;;;;;15.40;10.38;;;;;;;20.94;100.00;98959.07;1717245;82;21527;-69
2021/07/13 03:54:16;;;;;;;12.88;10.18;;;;;;;21.01;100.00;98955.13;1728406;81;21439;-69
2021/07/13 03:56:46;;;;;;;12.93;10.82;;;;;;;21.10;100.00;98956.47;1727738;81;20888;-69
2021/07/13 03:59:15;;;;;;;18.32;11.18;;;;;;;21.16;100.00;98959.69;1716363;81;20928;-69
2021/07/13 04:01:44;;;;;;;11.83;9.85;;;;;;;21.21;100.00;98956.77;1737687;82;20877;-69
2021/07/13 04:04:13;;;;;;;11.28;10.08;;;;;;;21.29;100.00;98959.98;1737449;82;21972;-69
2021/07/13 04:06:41;;;;;;;11.38;10.18;;;;;;;21.36;100.00;98960.92;1773765;80;21417;-69
2021/07/13 04:09:10;;;;;;;13.55;9.68;;;;;;;21.45;100.00;98962.25;1747890;81;21455;-69
2021/07/13 04:11:40;;;;;;;11.50;9.78;;;;;;;21.52;100.00;98958.76;1737959;82;21534;-69
2021/07/13 04:14:10;;;;;;;9.88;8.88;;;;;;;21.59;100.00;98953.45;1738452;81;21030;-69
2021/07/13 04:16:39;;;;;;;9.60;7.87;;;;;;;21.65;100.00;98947.75;1755782;81;21110;-69
2021/07/13 04:19:08;;;;;;;11.50;8.40;;;;;;;21.75;100.00;98954.34;1725437;81;21687;-67
2021/07/13 04:21:38;;;;;;;12.35;8.25;;;;;;;21.84;100.00;98959.72;1721146;81;21045;-69
2021/07/13 04:24:08;;;;;;;11.68;7.78;;;;;;;21.92;100.00;98961.51;1783654;80;21035;-68
2021/07/13 04:26:37;;;;;;;9.20;8.25;;;;;;;21.97;100.00;98958.09;1766952;80;21031;-69
2021/07/13 04:29:06;;;;;;;9.15;8.25;;;;;;;22.02;100.00;98962.73;1751252;80;21146;-69
2021/07/13 04:31:35;;;;;;;11.00;7.62;;;;;;;22.10;100.00;98966.36;1791330;80;21478;-69
2021/07/13 04:34:09;;;;;;;8.63;7.40;;;;;;;22.18;100.00;98957.39;1769787;80;21053;-69
2021/07/13 04:36:33;;;;;;;8.08;7.28;;;;;;;22.25;100.00;98958.34;1765376;80;20879;-69
2021/07/13 04:39:05;;;;;;;8.88;7.58;;;;;;;22.31;100.00;98953.09;1730474;81;20896;-69
2021/07/13 04:41:34;;;;;;;8.90;7.55;;;;;;;22.37;100.00;98954.09;1732755;81;22399;-69
2021/07/13 04:44:03;;;;;;;9.38;6.97;;;;;;;22.45;100.00;98954.51;1780541;80;20860;-69
2021/07/13 04:46:32;;;;;;;8.90;7.60;;;;;;;22.49;100.00;98957.41;1777821;80;20956;-69
2021/07/13 04:49:00;;;;;;;8.85;7.95;;;;;;;22.55;100.00;98960.22;1745672;82;21552;-69
2021/07/13 04:51:30;;;;;;;9.05;7.97;;;;;;;22.59;100.00;98949.20;1754698;80;21397;-69
2021/07/13 04:53:59;;;;;;;9.90;7.80;;;;;;;22.61;100.00;98943.73;1736692;80;22031;-67
2021/07/13 04:56:26;;;;;;;8.73;7.75;;;;;;;22.68;100.00;98944.23;1730698;83;21465;-68
2021/07/13 04:58:54;;;;;;;7.78;7.03;;;;;;;22.75;100.00;98944.30;1765770;80;20991;-68
2021/07/13 05:01:23;;;;;;;7.05;6.35;;;;;;;22.77;100.00;98945.94;1791412;80;20884;-69
2021/07/13 05:03:52;;;;;;;7.83;6.20;;;;;;;22.78;100.00;98942.77;1747421;80;20855;-69
2021/07/13 05:06:20;;;;;;;10.43;7.30;;;;;;;22.86;100.00;98945.91;1730435;83;21073;-68
2021/07/13 05:08:48;;;;;;;9.63;7.53;;;;;;;22.89;100.00;98949.76;1730804;80;20871;-68
2021/07/13 05:11:16;;;;;;;9.75;7.45;;;;;;;22.90;100.00;98951.48;1731087;80;20958;-68
2021/07/13 05:13:45;;;;;;;13.35;7.87;;;;;;;22.85;100.00;98958.97;1771081;80;21536;-68
2021/07/13 05:16:13;;;;;;;10.78;7.58;;;;;;;22.91;100.00;98959.95;1777931;80;21108;-68
2021/07/13 05:18:41;;;;;;;9.53;7.58;;;;;;;23.03;100.00;98966.42;1752252;80;21143;-68
2021/07/13 05:21:12;;;;;;;8.35;7.05;;;;;;;23.18;100.00;98974.47;1730363;83;20995;-69
2021/07/13 05:23:42;;;;;;;134.03;16.75;;;;;;;23.27;100.00;98971.70;1770910;80;21458;-69
2021/07/13 05:26:09;;;;;;;38.65;10.50;;;;;;;23.33;100.00;98969.98;1763535;80;20915;-69
2021/07/13 05:28:38;;;;;;;17.17;8.60;;;;;;;23.42;100.00;98981.53;1730109;81;20867;-68
2021/07/13 05:31:06;;;;;;;12.25;9.23;;;;;;;23.45;100.00;98973.27;1714353;81;21165;-68
2021/07/13 05:33:35;;;;;;;12.43;8.60;;;;;;;23.48;100.00;98979.80;1747256;81;20995;-69
2021/07/13 05:36:03;;;;;;;11.65;8.63;;;;;;;23.53;100.00;98976.83;1737872;81;21413;-69
2021/07/13 05:38:31;;;;;;;11.95;8.90;;;;;;;23.60;100.00;98974.66;1730987;81;21000;-69
2021/07/13 05:41:00;;;;;;;8.68;7.67;;;;;;;23.70;100.00;98982.09;1730737;83;20955;-69
2021/07/13 05:43:29;;;;;;;128.87;15.72;;;;;;;23.76;100.00;98980.84;1746143;81;22277;-70
2021/07/13 05:45:57;;;;;;;14.70;8.13;;;;;;;23.79;100.00;98980.66;1760329;81;20892;-69
2021/07/13 05:48:25;;;;;;;9.15;8.25;;;;;;;23.73;100.00;98985.08;1744085;81;21497;-69
2021/07/13 05:50:53;;;;;;;11.65;8.20;;;;;;;23.60;100.00;98984.94;1727973;81;20975;-70
2021/07/13 05:53:22;;;;;;;11.80;8.15;;;;;;;23.61;100.00;98983.98;1750998;81;21198;-68
2021/07/13 05:55:52;;;;;;;17.55;8.23;;;;;;;23.60;100.00;98982.73;1730748;83;21784;-69
2021/07/13 05:58:22;;;;;;;11.43;6.87;;;;;;;23.63;100.00;98978.50;1731276;81;21015;-69
2021/07/13 06:00:50;;;;;;;11.50;7.25;;;;;;;23.77;100.00;98982.58;1749541;81;21565;-68
2021/07/13 06:03:18;;;;;;;7.92;7.10;;;;;;;23.94;100.00;98978.82;1702245;83;21021;-69
2021/07/13 06:05:47;;;;;;;7.65;6.85;;;;;;;23.99;100.00;98977.56;1730660;83;21497;-69
2021/07/13 06:08:15;;;;;;;8.08;7.28;;;;;;;24.07;100.00;98978.42;1759634;81;21191;-69
2021/07/13 06:10:45;;;;;;;22.13;8.08;;;;;;;24.16;100.00;98985.95;1760539;81;20943;-70
2021/07/13 06:13:13;;;;;;;12.35;7.50;;;;;;;24.18;100.00;98986.23;1749817;81;20976;-67
2021/07/13 06:15:42;;;;;;;9.83;7.12;;;;;;;24.23;100.00;98986.42;1736197;81;20955;-70
2021/07/13 06:18:11;;;;;;;10.30;7.50;;;;;;;24.29;100.00;98988.27;1760394;81;20908;-69
2021/07/13 06:20:39;;;;;;;10.40;6.78;;;;;;;24.34;100.00;98992.88;1752479;81;21223;-69
2021/07/13 06:23:07;;;;;;;7.97;7.17;;;;;;;24.40;100.00;98988.92;1736550;81;20938;-68
2021/07/13 06:25:37;;;;;;;8.05;6.90;;;;;;;24.44;100.00;98980.53;1760485;81;20991;-69
2021/07/13 06:28:06;;;;;;;7.65;6.85;;;;;;;24.49;100.00;98977.53;1781309;79;20978;-69
2021/07/13 06:30:34;;;;;;;7.85;6.78;;;;;;;24.58;100.00;98982.31;1789678;80;20993;-69
2021/07/13 06:33:02;;;;;;;8.78;6.00;;;;;;;24.68;100.00;98981.26;1772427;80;21551;-69
2021/07/13 06:35:30;;;;;;;8.33;6.33;;;;;;;24.75;100.00;98981.23;1743413;80;20879;-70
2021/07/13 06:37:59;;;;;;;10.63;6.92;;;;;;;24.90;100.00;98982.03;1791645;80;20923;-69
2021/07/13 06:40:27;;;;;;;9.28;6.17;;;;;;;25.09;100.00;98983.45;1791843;80;20950;-69
2021/07/13 06:42:56;;;;;;;7.22;6.22;;;;;;;25.29;100.00;98985.27;1773413;80;21442;-70
2021/07/13 06:45:25;;;;;;;10.20;7.00;;;;;;;25.46;100.00;98983.61;1731118;80;21156;-69
2021/07/13 06:47:54;;;;;;;8.48;6.40;;;;;;;25.63;100.00;98980.63;1730956;80;21533;-69
2021/07/13 06:50:25;;;;;;;9.28;6.97;;;;;;;25.79;100.00;98976.86;1730335;83;20996;-70
2021/07/13 06:52:53;;;;;;;14.33;7.75;;;;;;;25.92;100.00;98973.17;1728799;80;21051;-68
2021/07/13 06:55:22;;;;;;;17.17;7.62;;;;;;;26.03;100.00;98977.35;1788610;80;21119;-68
2021/07/13 06:57:51;;;;;;;11.28;6.90;;;;;;;26.11;100.00;98972.74;1786710;80;21075;-68
2021/07/13 07:00:19;;;;;;;13.43;7.05;;;;;;;26.16;100.00;98971.92;1791407;80;21449;-68
2021/07/13 07:02:49;;;;;;;14.87;7.10;;;;;;;26.21;100.00;98969.74;1787387;80;20942;-69
2021/07/13 07:05:18;;;;;;;13.43;7.05;;;;;;;26.35;100.00;98970.11;1743754;80;20983;-69
2021/07/13 07:07:50;;;;;;;7.45;6.22;;;;;;;26.52;100.00;98968.91;1754376;81;21042;-69
2021/07/13 07:10:18;;;;;;;;;;;;;;;26.67;100.00;98963.70;1786519;80;21817;-67
2021/07/13 07:12:48;;;;;;;32.83;8.98;;;;;;;26.84;100.00;98967.34;1791283;80;20437;-68
2021/07/13 07:15:17;;;;;;;11.95;6.47;;;;;;;26.96;100.00;98956.97;1743195;80;20911;-70
2021/07/13 07:17:50;;;;;;;18.98;7.42;;;;;;;27.07;100.00;98961.59;1730307;82;20963;-67
2021/07/13 07:20:26;;;;;;;12.98;6.90;;;;;;;27.18;100.00;98960.28;1730321;82;20870;-66
2021/07/13 07:22:55;;;;;;;16.90;6.85;;;;;;;27.31;100.00;98959.33;1754871;80;21124;-62
2021/07/13 07:25:24;;;;;;;17.57;6.90;;;;;;;27.40;100.00;98951.84;1756334;80;20910;-65
2021/07/13 07:27:57;;;;;;;12.25;6.25;;;;;;;27.49;100.00;98950.66;1760194;81;21400;-72
2021/07/13 07:30:28;;;;;;;22.60;6.72;;;;;;;27.62;100.00;98953.28;1751125;80;21124;-61
2021/07/13 07:32:58;;;;;;;;;;;;;;;27.72;100.00;98953.42;1751825;80;21488;-66
2021/07/13 07:35:28;;;;;;;5.55;5.03;;;;;;;27.81;100.00;98948.13;1743129;80;21152;-64
2021/07/13 07:37:56;;;;;;;9.85;5.85;;;;;;;27.86;100.00;98944.55;1791878;80;21022;-68
2021/07/13 07:40:24;;;;;;;12.55;6.30;;;;;;;27.88;100.00;98942.58;1781404;80;20979;-70
2021/07/13 07:42:53;;;;;;;8.50;6.33;;;;;;;27.93;100.00;98948.16;1743921;81;20878;-76
2021/07/13 07:45:22;;;;;;;6.67;5.53;;;;;;;28.02;100.00;98944.70;1760652;81;21021;-74
2021/07/13 07:47:50;;;;;;;9.00;6.05;;;;;;;28.14;100.00;98943.21;1755408;81;21144;-73
2021/07/13 07:50:20;;;;;;;13.25;6.58;;;;;;;28.16;100.00;98939.88;1757885;81;20855;-69
2021/07/13 07:52:48;;;;;;;12.20;6.35;;;;;;;28.29;100.00;98939.77;1751793;81;21441;-71
2021/07/13 07:55:19;;;;;;;7.65;5.92;;;;;;;28.39;100.00;98944.84;1754177;81;20948;-71
2021/07/13 07:57:48;;;;;;;6.65;6.05;;;;;;;28.50;100.00;98938.02;1749048;81;21486;-70
2021/07/13 08:00:20;;;;;;;7.42;5.25;;;;;;;28.55;100.00;98939.49;1759155;80;21141;-72
2021/07/13 08:02:47;;;;;;;8.35;5.67;;;;;;;28.63;100.00;98937.00;1759371;80;20962;-74
2021/07/13 08:05:15;;;;;;;42.88;9.05;;;;;;;28.74;100.00;98941.03;1764751;80;21497;-71
2021/07/13 08:07:45;;;;;;;11.03;6.60;;;;;;;28.89;100.00;98937.58;1760597;79;20942;-70
2021/07/13 08:10:14;;;;;;;9.13;5.78;;;;;;;28.98;100.00;98935.44;1784635;80;21394;-71
2021/07/13 08:12:45;;;;;;;10.37;5.73;;;;;;;29.07;100.00;98940.09;1776995;79;21508;-69
2021/07/13 08:15:18;;;;;;;12.50;6.03;;;;;;;29.10;100.00;98931.18;1764895;81;20957;-69
2021/07/13 08:17:46;;;;;;;6.87;5.55;;;;;;;29.21;100.00;98932.97;1754151;81;21457;-69
2021/07/13 08:20:16;;;;;;;6.10;5.50;;;;;;;29.25;100.00;98930.85;1768176;81;20982;-69
2021/07/13 08:22:46;;;;;;;6.78;5.20;;;;;;;29.30;100.00;98938.97;1768252;81;21769;-70
2021/07/13 08:25:16;;;;;;;7.35;5.35;;;;;;;29.36;100.00;98939.83;1777626;80;21175;-71
2021/07/13 08:27:43;;;;;;;16.65;6.55;;;;;;;29.43;100.00;98936.97;1753195;81;20992;-70
2021/07/13 08:30:14;;;;;;;10.40;5.62;;;;;;;29.54;100.00;98937.89;1728150;83;20964;-66
2021/07/13 08:32:41;;;;;;;8.00;4.90;;;;;;;29.65;100.00;98940.53;1728203;83;20975;-68
2021/07/13 08:35:11;;;;;;;8.83;4.97;;;;;;;29.72;100.00;98937.63;1728413;81;20997;-71
2021/07/13 08:37:40;;;;;;;5.47;4.92;;;;;;;29.77;100.00;98937.59;1726703;81;21161;-72
2021/07/13 08:40:12;;;;;;;5.72;4.90;;;;;;;29.75;98.34;98940.94;1739512;81;20974;-70
2021/07/13 08:42:42;;;;;;;6.70;5.90;;;;;;;29.73;94.12;98942.07;1747097;80;20949;-71
2021/07/13 08:45:15;;;;;;;10.05;6.00;;;;;;;29.68;95.46;98941.13;1749492;80;21442;-70
2021/07/13 08:47:44;;;;;;;9.80;5.85;;;;;;;29.62;96.23;98939.44;1699702;83;20980;-71
2021/07/13 08:50:13;;;;;;;16.50;6.72;;;;;;;29.59;97.75;98944.65;1699093;83;21164;-70
2021/07/13 08:52:41;;;;;;;7.83;5.78;;;;;;;29.63;100.00;98949.31;1751122;80;21396;-69
2021/07/13 08:55:10;;;;;;;5.37;4.87;;;;;;;29.69;100.00;98950.13;1769567;79;20975;-69
2021/07/13 08:57:39;;;;;;;7.10;5.58;;;;;;;29.73;99.76;98954.31;1776476;80;21574;-69
2021/07/13 09:00:16;;;;;;;6.80;5.70;;;;;;;29.83;100.00;98943.02;1760395;78;22242;-74
2021/07/13 09:03:15;;;;;;;10.93;5.83;;;;;;;29.92;98.48;98950.85;1785169;79;21096;-72
2021/07/13 09:05:47;;;;;;;11.97;5.50;;;;;;;29.99;99.45;98950.67;1773551;79;20973;-70
2021/07/13 09:08:24;;;;;;;11.00;5.75;;;;;;;30.15;96.81;98937.44;1770845;78;20917;-76
2021/07/13 09:11:08;;;;;;;8.95;5.78;;;;;;;30.29;96.30;98946.61;1755088;79;21680;-71
2021/07/13 09:13:53;;;;;;;6.70;5.78;;;;;;;30.37;94.87;98942.69;1775629;79;21711;-67
2021/07/13 09:16:29;;;;;;;6.83;5.65;;;;;;;30.38;93.34;98943.05;1773612;79;21546;-70
2021/07/13 09:19:02;;;;;;;5.62;4.97;;;;;;;30.35;89.22;98941.97;1774084;79;21558;-70
2021/07/13 09:21:35;;;;;;;13.98;5.78;;;;;;;30.34;82.42;98939.39;1774100;79;21517;-68
2021/07/13 09:24:21;;;;;;;7.62;5.58;;;;;;;30.36;84.64;98941.47;1744795;80;21539;-67
2021/07/13 09:26:56;;;;;;;9.30;5.53;;;;;;;30.38;87.96;98939.47;1745324;81;21073;-68
2021/07/13 09:29:41;;;;;;;5.62;5.12;;;;;;;30.41;90.02;98943.27;1746358;81;21215;-76
2021/07/13 09:32:31;;;;;;;10.80;5.08;;;;;;;30.44;91.67;98944.35;1746767;81;20922;-75
2021/07/13 09:35:05;;;;;;;4.72;4.33;;;;;;;30.45;91.33;98943.85;1747206;81;20981;-76
2021/07/13 09:37:38;;;;;;;5.20;4.70;;;;;;;30.40;83.27;98951.08;1747123;81;20891;-74
2021/07/13 09:40:14;;;;;;;6.92;4.62;;;;;;;30.42;79.00;98950.94;1747298;80;21075;-77
2021/07/13 09:42:53;;;;;;;6.15;4.85;;;;;;;30.45;79.62;98950.66;1747212;81;21142;-74
2021/07/13 09:45:31;;;;;;;5.15;4.65;;;;;;;30.49;80.21;98950.73;1747446;81;20958;-75
2021/07/13 09:48:12;;;;;;;5.47;4.70;;;;;;;30.51;78.85;98944.16;1746980;81;20934;-74
2021/07/13 09:50:46;;;;;;;6.17;5.12;;;;;;;30.54;78.13;98944.38;1747189;80;21021;-75
2021/07/13 09:53:17;;;;;;;11.65;5.45;;;;;;;30.55;81.29;98940.15;1746776;81;20925;-74
2021/07/13 09:55:47;;;;;;;55.00;9.43;;;;;;;30.59;84.09;98942.09;1746701;81;21172;-75
2021/07/13 09:58:23;;;;;;;8.55;4.90;;;;;;;30.61;81.06;98942.84;1746724;81;21425;-75
2021/07/13 10:01:00;;;;;;;5.92;5.03;;;;;;;30.67;80.32;98947.22;1727507;81;20959;-74
2021/07/13 10:03:24;;;;;;;5.30;4.65;;;;;;;30.74;79.31;98942.56;1778346;80;21016;-76
2021/07/13 10:05:54;;;;;;;13.43;4.80;;;;;;;30.80;76.49;98944.75;1785020;80;20983;-76
2021/07/13 10:08:22;;;;;;;6.97;4.87;;;;;;;30.83;71.71;98943.11;1783509;80;21068;-76
2021/07/13 10:10:50;;;;;;;6.78;5.00;;;;;;;30.92;71.13;98948.56;1783551;80;20959;-76
2021/07/13 10:13:19;;;;;;;5.60;5.10;;;;;;;31.05;71.42;98946.91;1785728;80;21048;-76
2021/07/13 10:15:50;;;;;;;7.20;5.17;;;;;;;31.16;71.72;98945.43;1784155;79;21041;-76
2021/07/13 10:18:24;;;;;;;5.85;5.35;;;;;;;31.22;69.13;98946.24;1783794;80;20975;-74
2021/07/13 10:20:54;;;;;;;6.72;5.80;;;;;;;31.23;71.47;98943.88;1785010;79;20881;-75
2021/07/13 10:23:22;;;;;;;6.55;5.62;;;;;;;31.29;70.82;98952.83;1783796;80;20952;-76
2021/07/13 10:25:57;;;;;;;7.37;5.70;;;;;;;31.40;74.49;98951.81;1783663;80;20928;-74
2021/07/13 10:28:32;;;;;;;7.20;6.53;;;;;;;31.53;76.74;98948.77;1778760;80;20865;-74
2021/07/13 10:31:01;;;;;;;7.60;5.50;;;;;;;31.65;76.30;98944.86;1783149;80;21525;-75
2021/07/13 10:33:31;;;;;;;14.53;6.33;;;;;;;31.76;73.96;98949.34;1752784;80;21507;-75
2021/07/13 10:36:34;;;;;;;9.48;5.92;;;;;;;31.77;72.14;98947.84;1785959;80;21015;-74
2021/07/13 10:39:30;;;;;;;16.12;5.90;;;;;;;31.77;72.00;98948.34;1780678;80;20968;-75
2021/07/13 10:42:00;;;;;;;6.28;5.60;;;;;;;31.80;71.59;98950.27;1780943;80;21022;-76
2021/07/13 10:44:46;;;;;;;8.00;5.70;;;;;;;31.87;71.29;98933.66;1780298;80;20945;-75
2021/07/13 10:47:30;;;;;;;134.25;20.08;;;;;;;31.91;71.22;98940.53;1755063;80;21554;-75
2021/07/13 10:50:21;;;;;;;7.20;5.42;;;;;;;31.83;73.40;98943.15;1785187;80;20900;-75
2021/07/13 10:52:57;;;;;;;132.60;18.20;;;;;;;31.81;71.65;98939.71;1764338;80;20952;-73
2021/07/13 10:55:37;;;;;;;22.17;7.33;;;;;;;31.80;67.69;98936.63;1778550;80;20943;-75
2021/07/13 10:58:16;;;;;;;6.10;4.70;;;;;;;31.84;68.98;98934.47;1780048;80;20928;-67
2021/07/13 11:00:56;;;;;;;5.92;5.30;;;;;;;31.90;69.07;98940.18;1781011;80;21145;-71
2021/07/13 11:03:41;;;;;;;9.30;5.35;;;;;;;31.97;69.30;98933.62;1788456;80;20881;-68
2021/07/13 11:06:18;;;;;;;7.30;5.05;;;;;;;32.06;71.49;98931.35;1778060;80;21007;-80
2021/07/13 11:08:51;;;;;;;4.80;4.40;;;;;;;32.10;64.44;98927.31;1777231;80;21239;-71
2021/07/13 11:11:32;;;;;;;7.80;4.90;;;;;;;32.13;61.67;98929.73;1785228;80;20955;-65
2021/07/13 11:14:02;;;;;;;9.50;4.55;;;;;;;32.22;62.43;98930.73;1786342;80;21911;-65
2021/07/13 11:16:37;;;;;;;8.88;4.72;;;;;;;32.31;59.06;98929.84;1786362;80;21550;-66
2021/07/13 11:19:12;;;;;;;6.10;4.83;;;;;;;32.30;58.89;98932.73;1772642;80;21034;-71
2021/07/13 11:21:48;;;;;;;26.10;6.37;;;;;;;32.29;57.00;98929.14;1775666;80;21019;-71
2021/07/13 11:24:19;;;;;;;5.95;5.00;;;;;;;32.24;56.94;98925.50;1786872;80;21046;-71
2021/07/13 11:26:55;;;;;;;5.42;4.42;;;;;;;32.27;56.24;98924.34;1786952;80;21157;-71
2021/07/13 11:29:27;;;;;;;13.48;4.90;;;;;;;32.38;57.22;98924.63;1779717;79;21511;-71
2021/07/13 11:31:58;;;;;;;10.23;4.40;;;;;;;32.46;56.17;98915.17;1786441;80;21060;-72
2021/07/13 11:34:28;;;;;;;8.63;4.35;;;;;;;32.52;54.53;98918.14;1787983;80;21079;-70
2021/07/13 11:36:58;;;;;;;6.70;4.75;;;;;;;32.61;54.75;98914.13;1776997;80;20981;-71
2021/07/13 11:39:34;;;;;;;5.95;4.87;;;;;;;32.72;54.48;98909.84;1771005;80;21119;-71
2021/07/13 11:42:08;;;;;;;5.40;4.90;;;;;;;32.80;52.97;98904.48;1761585;80;21067;-70